sensor_id;sensor_type;location;lat;lon;timestamp;P1;durP1;ratioP1;P2;durP2;ratioP2
12900;SDS011;6518;50.930;5.344;2022-08-04T00:01:27;5.13;;;2.08;;
12900;SDS011;6518;50.930;5.344;2022-08-04T00:04:00;5.45;;;2.33;;
12900;SDS011;6518;50.930;5.344;2022-08-04T00:06:32;3.92;;;1.88;;
12900;SDS011;6518;50.930;5.344;2022-08-04T00:09:07;6.75;;;2.20;;
12900;SDS011;6518;50.930;5.344;2022-08-04T00:11:39;2.65;;;1.77;;
12900;SDS011;6518;50.930;5.344;2022-08-04T00:14:12;5.35;;;2.00;;
12900;SDS011;6518;50.930;5.344;2022-08-04T00:16:41;3.58;;;1.88;;
12900;SDS011;6518;50.930;5.344;2022-08-04T00:19:09;4.22;;;1.80;;
12900;SDS011;6518;50.930;5.344;2022-08-04T00:21:38;5.60;;;2.00;;
12900;SDS011;6518;50.930;5.344;2022-08-04T00:24:08;6.15;;;1.92;;
12900;SDS011;6518;50.930;5.344;2022-08-04T00:26:37;6.70;;;1.98;;
12900;SDS011;6518;50.930;5.344;2022-08-04T00:29:05;5.65;;;1.60;;
12900;SDS011;6518;50.930;5.344;2022-08-04T00:31:33;4.03;;;1.85;;
12900;SDS011;6518;50.930;5.344;2022-08-04T00:34:01;2.75;;;1.45;;
12900;SDS011;6518;50.930;5.344;2022-08-04T00:36:29;3.70;;;1.75;;
12900;SDS011;6518;50.930;5.344;2022-08-04T00:38:57;3.05;;;1.60;;
12900;SDS011;6518;50.930;5.344;2022-08-04T00:41:25;3.40;;;1.80;;
12900;SDS011;6518;50.930;5.344;2022-08-04T00:44:19;4.03;;;1.90;;
12900;SDS011;6518;50.930;5.344;2022-08-04T00:50:00;4.40;;;1.60;;
12900;SDS011;6518;50.930;5.344;2022-08-04T00:58:28;2.58;;;1.55;;
12900;SDS011;6518;50.930;5.344;2022-08-04T01:01:07;2.83;;;1.63;;
12900;SDS011;6518;50.930;5.344;2022-08-04T01:03:48;4.20;;;1.70;;
12900;SDS011;6518;50.930;5.344;2022-08-04T01:06:23;4.22;;;1.80;;
12900;SDS011;6518;50.930;5.344;2022-08-04T01:09:02;6.00;;;1.88;;
12900;SDS011;6518;50.930;5.344;2022-08-04T01:11:42;7.50;;;1.85;;
12900;SDS011;6518;50.930;5.344;2022-08-04T01:17:17;6.55;;;1.73;;
12900;SDS011;6518;50.930;5.344;2022-08-04T01:19:59;3.83;;;1.83;;
12900;SDS011;6518;50.930;5.344;2022-08-04T01:22:43;4.88;;;2.00;;
12900;SDS011;6518;50.930;5.344;2022-08-04T01:28:55;4.57;;;2.00;;
12900;SDS011;6518;50.930;5.344;2022-08-04T01:31:39;3.67;;;2.40;;
12900;SDS011;6518;50.930;5.344;2022-08-04T01:34:19;9.90;;;6.50;;
12900;SDS011;6518;50.930;5.344;2022-08-04T01:36:50;6.28;;;2.40;;
12900;SDS011;6518;50.930;5.344;2022-08-04T01:39:24;6.65;;;2.22;;
12900;SDS011;6518;50.930;5.344;2022-08-04T01:42:05;3.08;;;1.90;;
12900;SDS011;6518;50.930;5.344;2022-08-04T01:44:35;5.22;;;2.00;;
12900;SDS011;6518;50.930;5.344;2022-08-04T01:47:04;4.57;;;1.98;;
12900;SDS011;6518;50.930;5.344;2022-08-04T01:49:34;4.60;;;2.20;;
12900;SDS011;6518;50.930;5.344;2022-08-04T01:52:04;2.95;;;1.55;;
12900;SDS011;6518;50.930;5.344;2022-08-04T01:54:36;5.45;;;2.00;;
12900;SDS011;6518;50.930;5.344;2022-08-04T01:57:06;2.95;;;1.50;;
12900;SDS011;6518;50.930;5.344;2022-08-04T01:59:36;4.57;;;2.03;;
12900;SDS011;6518;50.930;5.344;2022-08-04T02:02:04;4.47;;;2.10;;
12900;SDS011;6518;50.930;5.344;2022-08-04T02:04:31;6.00;;;2.10;;
12900;SDS011;6518;50.930;5.344;2022-08-04T02:07:13;6.38;;;2.17;;
12900;SDS011;6518;50.930;5.344;2022-08-04T02:09:52;4.53;;;1.95;;
12900;SDS011;6518;50.930;5.344;2022-08-04T02:12:31;4.68;;;2.05;;
12900;SDS011;6518;50.930;5.344;2022-08-04T02:15:14;5.22;;;1.95;;
12900;SDS011;6518;50.930;5.344;2022-08-04T02:17:51;5.18;;;2.00;;
12900;SDS011;6518;50.930;5.344;2022-08-04T02:20:22;4.70;;;2.00;;
12900;SDS011;6518;50.930;5.344;2022-08-04T02:22:52;2.63;;;1.70;;
12900;SDS011;6518;50.930;5.344;2022-08-04T02:25:25;4.38;;;2.30;;
12900;SDS011;6518;50.930;5.344;2022-08-04T02:28:01;7.30;;;2.55;;
12900;SDS011;6518;50.930;5.344;2022-08-04T02:30:39;10.77;;;2.20;;
12900;SDS011;6518;50.930;5.344;2022-08-04T02:33:12;3.97;;;1.80;;
12900;SDS011;6518;50.930;5.344;2022-08-04T02:35:44;5.20;;;2.00;;
12900;SDS011;6518;50.930;5.344;2022-08-04T02:38:17;3.70;;;1.98;;
12900;SDS011;6518;50.930;5.344;2022-08-04T02:40:49;2.95;;;1.88;;
12900;SDS011;6518;50.930;5.344;2022-08-04T02:43:19;8.05;;;1.80;;
12900;SDS011;6518;50.930;5.344;2022-08-04T02:45:50;5.57;;;1.95;;
12900;SDS011;6518;50.930;5.344;2022-08-04T02:48:19;3.67;;;1.90;;
12900;SDS011;6518;50.930;5.344;2022-08-04T02:50:49;3.53;;;1.83;;
12900;SDS011;6518;50.930;5.344;2022-08-04T02:53:18;3.72;;;1.92;;
12900;SDS011;6518;50.930;5.344;2022-08-04T02:55:47;5.50;;;2.25;;
12900;SDS011;6518;50.930;5.344;2022-08-04T02:58:18;4.95;;;1.80;;
12900;SDS011;6518;50.930;5.344;2022-08-04T03:00:45;3.67;;;1.95;;
12900;SDS011;6518;50.930;5.344;2022-08-04T03:03:20;4.63;;;1.90;;
12900;SDS011;6518;50.930;5.344;2022-08-04T03:05:55;2.95;;;1.83;;
12900;SDS011;6518;50.930;5.344;2022-08-04T03:08:48;4.57;;;1.90;;
12900;SDS011;6518;50.930;5.344;2022-08-04T03:14:57;10.45;;;6.68;;
12900;SDS011;6518;50.930;5.344;2022-08-04T03:17:57;5.28;;;2.83;;
12900;SDS011;6518;50.930;5.344;2022-08-04T03:26:40;4.20;;;2.00;;
12900;SDS011;6518;50.930;5.344;2022-08-04T03:29:37;8.57;;;2.70;;
12900;SDS011;6518;50.930;5.344;2022-08-04T03:38:50;5.97;;;2.05;;
12900;SDS011;6518;50.930;5.344;2022-08-04T03:41:53;3.35;;;1.92;;
12900;SDS011;6518;50.930;5.344;2022-08-04T03:50:46;7.82;;;2.60;;
12900;SDS011;6518;50.930;5.344;2022-08-04T03:54:04;7.55;;;2.30;;
12900;SDS011;6518;50.930;5.344;2022-08-04T03:56:49;7.07;;;3.08;;
12900;SDS011;6518;50.930;5.344;2022-08-04T03:59:42;5.90;;;2.47;;
12900;SDS011;6518;50.930;5.344;2022-08-04T04:02:40;7.35;;;2.47;;
12900;SDS011;6518;50.930;5.344;2022-08-04T04:05:42;9.23;;;2.92;;
12900;SDS011;6518;50.930;5.344;2022-08-04T04:08:37;6.18;;;2.60;;
12900;SDS011;6518;50.930;5.344;2022-08-04T04:11:29;6.50;;;2.70;;
12900;SDS011;6518;50.930;5.344;2022-08-04T04:17:19;7.00;;;2.53;;
12900;SDS011;6518;50.930;5.344;2022-08-04T04:20:21;8.30;;;2.85;;
12900;SDS011;6518;50.930;5.344;2022-08-04T04:23:09;5.43;;;2.40;;
12900;SDS011;6518;50.930;5.344;2022-08-04T04:25:52;8.18;;;2.80;;
12900;SDS011;6518;50.930;5.344;2022-08-04T04:28:31;4.53;;;2.50;;
12900;SDS011;6518;50.930;5.344;2022-08-04T04:31:18;6.90;;;2.72;;
12900;SDS011;6518;50.930;5.344;2022-08-04T04:34:04;7.72;;;2.50;;
12900;SDS011;6518;50.930;5.344;2022-08-04T04:36:40;8.20;;;2.78;;
12900;SDS011;6518;50.930;5.344;2022-08-04T04:39:17;7.45;;;2.97;;
12900;SDS011;6518;50.930;5.344;2022-08-04T04:42:06;6.65;;;2.50;;
12900;SDS011;6518;50.930;5.344;2022-08-04T04:44:52;7.13;;;3.00;;
12900;SDS011;6518;50.930;5.344;2022-08-04T04:47:30;7.72;;;2.50;;
12900;SDS011;6518;50.930;5.344;2022-08-04T04:50:17;6.90;;;1.90;;
12900;SDS011;6518;50.930;5.344;2022-08-04T04:52:54;6.43;;;2.50;;
12900;SDS011;6518;50.930;5.344;2022-08-04T04:55:32;6.20;;;2.42;;
12900;SDS011;6518;50.930;5.344;2022-08-04T04:58:06;6.22;;;2.75;;
12900;SDS011;6518;50.930;5.344;2022-08-04T05:00:45;4.68;;;2.10;;
12900;SDS011;6518;50.930;5.344;2022-08-04T05:03:29;5.65;;;1.70;;
12900;SDS011;6518;50.930;5.344;2022-08-04T05:06:14;12.13;;;2.22;;
12900;SDS011;6518;50.930;5.344;2022-08-04T05:09:02;4.43;;;2.08;;
12900;SDS011;6518;50.930;5.344;2022-08-04T05:11:48;4.05;;;2.25;;
12900;SDS011;6518;50.930;5.344;2022-08-04T05:14:42;4.50;;;1.98;;
12900;SDS011;6518;50.930;5.344;2022-08-04T05:17:14;5.40;;;1.95;;
12900;SDS011;6518;50.930;5.344;2022-08-04T05:19:50;4.65;;;2.17;;
12900;SDS011;6518;50.930;5.344;2022-08-04T05:22:25;5.20;;;2.60;;
12900;SDS011;6518;50.930;5.344;2022-08-04T05:24:58;7.40;;;2.40;;
12900;SDS011;6518;50.930;5.344;2022-08-04T05:27:33;8.60;;;2.33;;
12900;SDS011;6518;50.930;5.344;2022-08-04T05:30:04;7.25;;;2.28;;
12900;SDS011;6518;50.930;5.344;2022-08-04T05:32:35;8.25;;;2.20;;
12900;SDS011;6518;50.930;5.344;2022-08-04T05:35:08;9.85;;;3.55;;
12900;SDS011;6518;50.930;5.344;2022-08-04T05:37:38;10.88;;;2.35;;
12900;SDS011;6518;50.930;5.344;2022-08-04T05:40:07;5.55;;;2.38;;
12900;SDS011;6518;50.930;5.344;2022-08-04T05:42:38;3.67;;;1.80;;
12900;SDS011;6518;50.930;5.344;2022-08-04T05:45:08;5.57;;;2.13;;
12900;SDS011;6518;50.930;5.344;2022-08-04T05:47:38;7.93;;;2.03;;
12900;SDS011;6518;50.930;5.344;2022-08-04T05:50:07;6.45;;;2.20;;
12900;SDS011;6518;50.930;5.344;2022-08-04T05:52:36;5.40;;;2.80;;
12900;SDS011;6518;50.930;5.344;2022-08-04T05:55:04;3.35;;;2.30;;
12900;SDS011;6518;50.930;5.344;2022-08-04T05:57:39;6.30;;;2.28;;
12900;SDS011;6518;50.930;5.344;2022-08-04T06:00:08;6.47;;;2.20;;
12900;SDS011;6518;50.930;5.344;2022-08-04T06:02:37;9.68;;;2.30;;
12900;SDS011;6518;50.930;5.344;2022-08-04T06:05:06;5.65;;;2.20;;
12900;SDS011;6518;50.930;5.344;2022-08-04T06:07:34;5.05;;;2.00;;
12900;SDS011;6518;50.930;5.344;2022-08-04T06:10:02;6.32;;;2.45;;
12900;SDS011;6518;50.930;5.344;2022-08-04T06:12:31;6.30;;;2.20;;
12900;SDS011;6518;50.930;5.344;2022-08-04T06:15:04;4.57;;;2.15;;
12900;SDS011;6518;50.930;5.344;2022-08-04T06:17:35;4.57;;;2.47;;
12900;SDS011;6518;50.930;5.344;2022-08-04T06:20:06;4.03;;;2.30;;
12900;SDS011;6518;50.930;5.344;2022-08-04T06:22:36;6.00;;;2.20;;
12900;SDS011;6518;50.930;5.344;2022-08-04T06:25:07;5.80;;;2.20;;
12900;SDS011;6518;50.930;5.344;2022-08-04T06:27:36;5.03;;;1.90;;
12900;SDS011;6518;50.930;5.344;2022-08-04T06:30:06;7.00;;;5.38;;
12900;SDS011;6518;50.930;5.344;2022-08-04T06:32:38;10.65;;;9.52;;
12900;SDS011;6518;50.930;5.344;2022-08-04T06:35:13;5.53;;;2.55;;
12900;SDS011;6518;50.930;5.344;2022-08-04T06:37:41;5.63;;;2.13;;
12900;SDS011;6518;50.930;5.344;2022-08-04T06:40:10;6.05;;;2.40;;
12900;SDS011;6518;50.930;5.344;2022-08-04T06:42:38;5.22;;;2.10;;
12900;SDS011;6518;50.930;5.344;2022-08-04T06:45:08;4.63;;;2.22;;
12900;SDS011;6518;50.930;5.344;2022-08-04T06:47:36;2.67;;;1.92;;
12900;SDS011;6518;50.930;5.344;2022-08-04T06:50:05;6.00;;;2.17;;
12900;SDS011;6518;50.930;5.344;2022-08-04T06:52:33;3.65;;;1.98;;
12900;SDS011;6518;50.930;5.344;2022-08-04T06:55:00;4.18;;;2.10;;
12900;SDS011;6518;50.930;5.344;2022-08-04T06:57:28;7.20;;;2.15;;
12900;SDS011;6518;50.930;5.344;2022-08-04T06:59:57;5.03;;;2.20;;
12900;SDS011;6518;50.930;5.344;2022-08-04T07:02:29;7.68;;;2.22;;
12900;SDS011;6518;50.930;5.344;2022-08-04T07:04:59;3.53;;;2.10;;
12900;SDS011;6518;50.930;5.344;2022-08-04T07:07:26;5.45;;;2.15;;
12900;SDS011;6518;50.930;5.344;2022-08-04T07:09:54;7.72;;;2.40;;
12900;SDS011;6518;50.930;5.344;2022-08-04T07:12:21;5.82;;;2.10;;
12900;SDS011;6518;50.930;5.344;2022-08-04T07:14:50;5.63;;;2.22;;
12900;SDS011;6518;50.930;5.344;2022-08-04T07:17:17;6.63;;;2.60;;
12900;SDS011;6518;50.930;5.344;2022-08-04T07:19:48;6.15;;;2.60;;
12900;SDS011;6518;50.930;5.344;2022-08-04T07:22:17;5.28;;;2.22;;
12900;SDS011;6518;50.930;5.344;2022-08-04T07:24:45;4.78;;;2.40;;
12900;SDS011;6518;50.930;5.344;2022-08-04T07:27:12;5.97;;;2.30;;
12900;SDS011;6518;50.930;5.344;2022-08-04T07:29:42;5.22;;;2.38;;
12900;SDS011;6518;50.930;5.344;2022-08-04T07:32:09;6.75;;;2.47;;
12900;SDS011;6518;50.930;5.344;2022-08-04T07:34:43;7.10;;;2.40;;
12900;SDS011;6518;50.930;5.344;2022-08-04T07:37:13;5.70;;;2.60;;
12900;SDS011;6518;50.930;5.344;2022-08-04T07:39:40;3.88;;;2.75;;
12900;SDS011;6518;50.930;5.344;2022-08-04T07:42:07;8.32;;;3.03;;
12900;SDS011;6518;50.930;5.344;2022-08-04T07:44:35;8.18;;;4.05;;
12900;SDS011;6518;50.930;5.344;2022-08-04T07:47:04;10.13;;;4.38;;
12900;SDS011;6518;50.930;5.344;2022-08-04T07:49:32;7.78;;;3.75;;
12900;SDS011;6518;50.930;5.344;2022-08-04T07:51:59;8.73;;;4.07;;
12900;SDS011;6518;50.930;5.344;2022-08-04T07:54:29;10.02;;;4.20;;
12900;SDS011;6518;50.930;5.344;2022-08-04T07:56:56;7.38;;;4.10;;
12900;SDS011;6518;50.930;5.344;2022-08-04T07:59:23;8.63;;;4.47;;
12900;SDS011;6518;50.930;5.344;2022-08-04T08:01:50;7.13;;;4.45;;
12900;SDS011;6518;50.930;5.344;2022-08-04T08:04:18;11.40;;;4.40;;
12900;SDS011;6518;50.930;5.344;2022-08-04T08:06:46;10.55;;;5.57;;
12900;SDS011;6518;50.930;5.344;2022-08-04T08:09:13;9.63;;;5.15;;
12900;SDS011;6518;50.930;5.344;2022-08-04T08:11:44;12.07;;;5.22;;
12900;SDS011;6518;50.930;5.344;2022-08-04T08:14:12;9.07;;;5.30;;
12900;SDS011;6518;50.930;5.344;2022-08-04T08:16:40;7.57;;;4.70;;
12900;SDS011;6518;50.930;5.344;2022-08-04T08:19:07;11.60;;;5.38;;
12900;SDS011;6518;50.930;5.344;2022-08-04T08:21:35;9.50;;;5.68;;
12900;SDS011;6518;50.930;5.344;2022-08-04T08:24:03;13.52;;;5.63;;
12900;SDS011;6518;50.930;5.344;2022-08-04T08:26:30;11.77;;;6.03;;
12900;SDS011;6518;50.930;5.344;2022-08-04T08:28:59;12.18;;;6.03;;
12900;SDS011;6518;50.930;5.344;2022-08-04T08:31:27;9.30;;;6.03;;
12900;SDS011;6518;50.930;5.344;2022-08-04T08:33:54;11.93;;;5.50;;
12900;SDS011;6518;50.930;5.344;2022-08-04T08:36:25;7.85;;;6.20;;
12900;SDS011;6518;50.930;5.344;2022-08-04T08:38:58;7.07;;;5.40;;
12900;SDS011;6518;50.930;5.344;2022-08-04T08:41:42;7.90;;;6.00;;
12900;SDS011;6518;50.930;5.344;2022-08-04T08:51:09;10.57;;;5.43;;
12900;SDS011;6518;50.930;5.344;2022-08-04T08:54:16;7.07;;;5.35;;
12900;SDS011;6518;50.930;5.344;2022-08-04T08:57:12;8.73;;;5.13;;
12900;SDS011;6518;50.930;5.344;2022-08-04T08:59:55;10.55;;;4.47;;
12900;SDS011;6518;50.930;5.344;2022-08-04T09:02:43;8.02;;;4.50;;
12900;SDS011;6518;50.930;5.344;2022-08-04T09:08:16;8.50;;;3.70;;
12900;SDS011;6518;50.930;5.344;2022-08-04T09:10:53;6.20;;;3.42;;
12900;SDS011;6518;50.930;5.344;2022-08-04T09:13:28;6.25;;;3.10;;
12900;SDS011;6518;50.930;5.344;2022-08-04T09:16:01;7.15;;;3.13;;
12900;SDS011;6518;50.930;5.344;2022-08-04T09:18:35;8.57;;;3.00;;
12900;SDS011;6518;50.930;5.344;2022-08-04T09:21:09;8.45;;;2.80;;
12900;SDS011;6518;50.930;5.344;2022-08-04T09:23:45;10.63;;;2.70;;
12900;SDS011;6518;50.930;5.344;2022-08-04T09:26:18;6.10;;;2.72;;
12900;SDS011;6518;50.930;5.344;2022-08-04T09:28:53;6.68;;;2.15;;
12900;SDS011;6518;50.930;5.344;2022-08-04T09:31:29;7.63;;;2.45;;
12900;SDS011;6518;50.930;5.344;2022-08-04T09:34:18;5.78;;;2.53;;
12900;SDS011;6518;50.930;5.344;2022-08-04T09:36:51;8.88;;;2.25;;
12900;SDS011;6518;50.930;5.344;2022-08-04T09:39:23;9.60;;;2.50;;
12900;SDS011;6518;50.930;5.344;2022-08-04T09:41:58;6.10;;;2.33;;
12900;SDS011;6518;50.930;5.344;2022-08-04T09:44:34;9.95;;;2.35;;
12900;SDS011;6518;50.930;5.344;2022-08-04T09:47:10;8.70;;;2.65;;
12900;SDS011;6518;50.930;5.344;2022-08-04T09:49:45;9.98;;;2.72;;
12900;SDS011;6518;50.930;5.344;2022-08-04T09:52:21;7.00;;;2.42;;
12900;SDS011;6518;50.930;5.344;2022-08-04T09:54:57;8.25;;;2.50;;
12900;SDS011;6518;50.930;5.344;2022-08-04T09:57:35;11.65;;;2.30;;
12900;SDS011;6518;50.930;5.344;2022-08-04T10:00:10;7.10;;;2.70;;
12900;SDS011;6518;50.930;5.344;2022-08-04T10:02:42;6.75;;;1.98;;
12900;SDS011;6518;50.930;5.344;2022-08-04T10:05:13;6.82;;;2.22;;
12900;SDS011;6518;50.930;5.344;2022-08-04T10:07:50;12.18;;;2.85;;
12900;SDS011;6518;50.930;5.344;2022-08-04T10:10:31;11.60;;;2.33;;
12900;SDS011;6518;50.930;5.344;2022-08-04T10:15:54;10.35;;;2.33;;
12900;SDS011;6518;50.930;5.344;2022-08-04T10:18:42;6.45;;;2.25;;
12900;SDS011;6518;50.930;5.344;2022-08-04T10:21:18;9.25;;;2.30;;
12900;SDS011;6518;50.930;5.344;2022-08-04T10:23:53;9.52;;;2.28;;
12900;SDS011;6518;50.930;5.344;2022-08-04T10:26:32;7.82;;;2.55;;
12900;SDS011;6518;50.930;5.344;2022-08-04T10:29:08;7.72;;;2.30;;
12900;SDS011;6518;50.930;5.344;2022-08-04T10:31:41;9.32;;;2.20;;
12900;SDS011;6518;50.930;5.344;2022-08-04T10:34:12;9.90;;;2.72;;
12900;SDS011;6518;50.930;5.344;2022-08-04T10:36:56;8.48;;;2.40;;
12900;SDS011;6518;50.930;5.344;2022-08-04T10:39:31;7.90;;;2.70;;
12900;SDS011;6518;50.930;5.344;2022-08-04T10:42:11;10.73;;;2.60;;
12900;SDS011;6518;50.930;5.344;2022-08-04T10:44:50;8.43;;;2.33;;
12900;SDS011;6518;50.930;5.344;2022-08-04T10:47:23;10.88;;;2.67;;
12900;SDS011;6518;50.930;5.344;2022-08-04T10:49:58;6.35;;;2.40;;
12900;SDS011;6518;50.930;5.344;2022-08-04T10:52:30;9.13;;;2.40;;
12900;SDS011;6518;50.930;5.344;2022-08-04T10:55:04;7.90;;;1.98;;
12900;SDS011;6518;50.930;5.344;2022-08-04T10:57:38;8.15;;;2.58;;
12900;SDS011;6518;50.930;5.344;2022-08-04T11:00:08;7.82;;;2.33;;
12900;SDS011;6518;50.930;5.344;2022-08-04T11:02:42;10.00;;;2.10;;
12900;SDS011;6518;50.930;5.344;2022-08-04T11:05:14;6.93;;;2.42;;
12900;SDS011;6518;50.930;5.344;2022-08-04T11:07:49;8.05;;;2.30;;
12900;SDS011;6518;50.930;5.344;2022-08-04T11:10:20;7.28;;;2.38;;
12900;SDS011;6518;50.930;5.344;2022-08-04T11:12:52;9.30;;;2.28;;
12900;SDS011;6518;50.930;5.344;2022-08-04T11:15:24;10.40;;;2.63;;
12900;SDS011;6518;50.930;5.344;2022-08-04T11:17:55;8.52;;;2.22;;
12900;SDS011;6518;50.930;5.344;2022-08-04T11:20:26;9.68;;;2.92;;
12900;SDS011;6518;50.930;5.344;2022-08-04T11:23:02;6.53;;;2.13;;
12900;SDS011;6518;50.930;5.344;2022-08-04T11:25:34;9.23;;;2.35;;
12900;SDS011;6518;50.930;5.344;2022-08-04T11:28:08;7.72;;;2.40;;
12900;SDS011;6518;50.930;5.344;2022-08-04T11:30:42;6.05;;;1.90;;
12900;SDS011;6518;50.930;5.344;2022-08-04T11:33:19;7.32;;;2.15;;
12900;SDS011;6518;50.930;5.344;2022-08-04T11:35:50;4.88;;;2.40;;
12900;SDS011;6518;50.930;5.344;2022-08-04T11:38:26;10.40;;;1.90;;
12900;SDS011;6518;50.930;5.344;2022-08-04T11:40:57;12.60;;;2.05;;
12900;SDS011;6518;50.930;5.344;2022-08-04T11:43:32;9.00;;;2.28;;
12900;SDS011;6518;50.930;5.344;2022-08-04T11:46:06;21.02;;;3.53;;
12900;SDS011;6518;50.930;5.344;2022-08-04T11:48:40;16.08;;;2.92;;
12900;SDS011;6518;50.930;5.344;2022-08-04T11:51:15;10.95;;;2.30;;
12900;SDS011;6518;50.930;5.344;2022-08-04T11:53:45;7.22;;;2.40;;
12900;SDS011;6518;50.930;5.344;2022-08-04T11:56:13;9.45;;;2.53;;
12900;SDS011;6518;50.930;5.344;2022-08-04T11:58:41;5.47;;;2.72;;
12900;SDS011;6518;50.930;5.344;2022-08-04T12:01:10;7.90;;;3.25;;
12900;SDS011;6518;50.930;5.344;2022-08-04T12:03:45;7.15;;;2.72;;
12900;SDS011;6518;50.930;5.344;2022-08-04T12:06:21;6.45;;;2.35;;
12900;SDS011;6518;50.930;5.344;2022-08-04T12:08:59;10.40;;;2.83;;
12900;SDS011;6518;50.930;5.344;2022-08-04T12:11:35;8.05;;;2.63;;
12900;SDS011;6518;50.930;5.344;2022-08-04T12:14:10;9.13;;;2.80;;
12900;SDS011;6518;50.930;5.344;2022-08-04T12:16:44;9.10;;;2.97;;
12900;SDS011;6518;50.930;5.344;2022-08-04T12:19:20;9.85;;;2.83;;
12900;SDS011;6518;50.930;5.344;2022-08-04T12:21:54;6.57;;;2.70;;
12900;SDS011;6518;50.930;5.344;2022-08-04T12:24:26;8.68;;;3.25;;
12900;SDS011;6518;50.930;5.344;2022-08-04T12:27:04;9.05;;;3.13;;
12900;SDS011;6518;50.930;5.344;2022-08-04T12:29:38;7.45;;;2.97;;
12900;SDS011;6518;50.930;5.344;2022-08-04T12:32:10;9.15;;;3.17;;
12900;SDS011;6518;50.930;5.344;2022-08-04T12:34:47;10.50;;;2.88;;
12900;SDS011;6518;50.930;5.344;2022-08-04T12:37:22;9.95;;;3.38;;
12900;SDS011;6518;50.930;5.344;2022-08-04T12:40:02;8.82;;;2.95;;
12900;SDS011;6518;50.930;5.344;2022-08-04T12:42:35;11.55;;;3.35;;
12900;SDS011;6518;50.930;5.344;2022-08-04T12:45:09;15.93;;;3.97;;
12900;SDS011;6518;50.930;5.344;2022-08-04T12:47:38;16.70;;;4.20;;
12900;SDS011;6518;50.930;5.344;2022-08-04T12:50:07;11.68;;;3.75;;
12900;SDS011;6518;50.930;5.344;2022-08-04T12:52:40;11.40;;;3.90;;
12900;SDS011;6518;50.930;5.344;2022-08-04T12:55:09;9.00;;;4.13;;
12900;SDS011;6518;50.930;5.344;2022-08-04T12:57:38;9.05;;;3.55;;
12900;SDS011;6518;50.930;5.344;2022-08-04T13:00:07;9.35;;;3.83;;
12900;SDS011;6518;50.930;5.344;2022-08-04T13:02:36;8.90;;;3.40;;
12900;SDS011;6518;50.930;5.344;2022-08-04T13:05:06;12.48;;;4.05;;
12900;SDS011;6518;50.930;5.344;2022-08-04T13:07:37;10.68;;;4.03;;
12900;SDS011;6518;50.930;5.344;2022-08-04T13:10:14;9.35;;;3.20;;
12900;SDS011;6518;50.930;5.344;2022-08-04T13:12:43;11.00;;;3.75;;
12900;SDS011;6518;50.930;5.344;2022-08-04T13:15:19;10.27;;;4.25;;
12900;SDS011;6518;50.930;5.344;2022-08-04T13:17:49;13.10;;;3.95;;
12900;SDS011;6518;50.930;5.344;2022-08-04T13:20:23;7.47;;;3.42;;
12900;SDS011;6518;50.930;5.344;2022-08-04T13:22:52;11.50;;;3.83;;
12900;SDS011;6518;50.930;5.344;2022-08-04T13:25:35;10.93;;;4.07;;
12900;SDS011;6518;50.930;5.344;2022-08-04T13:28:07;9.55;;;3.83;;
12900;SDS011;6518;50.930;5.344;2022-08-04T13:30:38;7.70;;;3.55;;
12900;SDS011;6518;50.930;5.344;2022-08-04T13:33:06;7.78;;;4.32;;
12900;SDS011;6518;50.930;5.344;2022-08-04T13:35:33;10.20;;;4.05;;
12900;SDS011;6518;50.930;5.344;2022-08-04T13:38:07;8.50;;;4.20;;
12900;SDS011;6518;50.930;5.344;2022-08-04T13:40:38;9.38;;;3.50;;
12900;SDS011;6518;50.930;5.344;2022-08-04T13:43:08;12.38;;;4.50;;
12900;SDS011;6518;50.930;5.344;2022-08-04T13:45:38;17.42;;;5.13;;
12900;SDS011;6518;50.930;5.344;2022-08-04T13:48:06;10.38;;;3.60;;
12900;SDS011;6518;50.930;5.344;2022-08-04T13:50:36;9.65;;;3.58;;
12900;SDS011;6518;50.930;5.344;2022-08-04T13:53:04;10.18;;;3.90;;
12900;SDS011;6518;50.930;5.344;2022-08-04T13:55:31;13.45;;;4.05;;
12900;SDS011;6518;50.930;5.344;2022-08-04T13:58:03;8.13;;;3.55;;
12900;SDS011;6518;50.930;5.344;2022-08-04T14:00:42;9.13;;;4.45;;
12900;SDS011;6518;50.930;5.344;2022-08-04T14:03:12;8.65;;;3.72;;
12900;SDS011;6518;50.930;5.344;2022-08-04T14:06:03;10.70;;;3.47;;
12900;SDS011;6518;50.930;5.344;2022-08-04T14:08:33;12.75;;;3.72;;
12900;SDS011;6518;50.930;5.344;2022-08-04T14:11:08;9.13;;;4.15;;
12900;SDS011;6518;50.930;5.344;2022-08-04T14:13:38;10.43;;;3.60;;
12900;SDS011;6518;50.930;5.344;2022-08-04T14:16:12;9.07;;;3.33;;
12900;SDS011;6518;50.930;5.344;2022-08-04T14:18:40;11.88;;;3.63;;
12900;SDS011;6518;50.930;5.344;2022-08-04T14:21:07;10.07;;;4.07;;
12900;SDS011;6518;50.930;5.344;2022-08-04T14:23:43;8.15;;;3.90;;
12900;SDS011;6518;50.930;5.344;2022-08-04T14:26:12;15.00;;;3.75;;
12900;SDS011;6518;50.930;5.344;2022-08-04T14:28:41;8.85;;;3.22;;
12900;SDS011;6518;50.930;5.344;2022-08-04T14:31:09;12.63;;;3.55;;
12900;SDS011;6518;50.930;5.344;2022-08-04T14:33:37;10.18;;;3.78;;
12900;SDS011;6518;50.930;5.344;2022-08-04T14:36:05;8.00;;;3.90;;
12900;SDS011;6518;50.930;5.344;2022-08-04T14:38:43;10.40;;;4.00;;
12900;SDS011;6518;50.930;5.344;2022-08-04T14:41:15;8.75;;;3.60;;
12900;SDS011;6518;50.930;5.344;2022-08-04T14:43:45;9.57;;;3.60;;
12900;SDS011;6518;50.930;5.344;2022-08-04T14:46:13;9.10;;;3.78;;
12900;SDS011;6518;50.930;5.344;2022-08-04T14:51:40;10.32;;;3.72;;
12900;SDS011;6518;50.930;5.344;2022-08-04T14:54:09;9.85;;;4.13;;
12900;SDS011;6518;50.930;5.344;2022-08-04T14:56:39;6.72;;;2.88;;
12900;SDS011;6518;50.930;5.344;2022-08-04T14:59:08;8.77;;;3.50;;
12900;SDS011;6518;50.930;5.344;2022-08-04T15:01:36;10.20;;;3.92;;
12900;SDS011;6518;50.930;5.344;2022-08-04T15:04:05;8.95;;;3.60;;
12900;SDS011;6518;50.930;5.344;2022-08-04T15:06:33;10.52;;;3.08;;
12900;SDS011;6518;50.930;5.344;2022-08-04T15:09:04;7.05;;;3.17;;
12900;SDS011;6518;50.930;5.344;2022-08-04T15:11:34;5.57;;;2.83;;
12900;SDS011;6518;50.930;5.344;2022-08-04T15:14:01;9.35;;;3.42;;
12900;SDS011;6518;50.930;5.344;2022-08-04T15:16:31;8.05;;;3.10;;
12900;SDS011;6518;50.930;5.344;2022-08-04T15:18:59;7.85;;;3.55;;
12900;SDS011;6518;50.930;5.344;2022-08-04T15:21:27;5.68;;;3.20;;
12900;SDS011;6518;50.930;5.344;2022-08-04T15:23:55;9.23;;;3.10;;
12900;SDS011;6518;50.930;5.344;2022-08-04T15:26:24;8.38;;;2.97;;
12900;SDS011;6518;50.930;5.344;2022-08-04T15:28:59;7.93;;;2.92;;
12900;SDS011;6518;50.930;5.344;2022-08-04T15:31:40;8.63;;;2.90;;
12900;SDS011;6518;50.930;5.344;2022-08-04T15:34:08;7.75;;;2.95;;
12900;SDS011;6518;50.930;5.344;2022-08-04T15:36:41;3.95;;;2.60;;
12900;SDS011;6518;50.930;5.344;2022-08-04T15:39:16;6.63;;;2.75;;
12900;SDS011;6518;50.930;5.344;2022-08-04T15:41:56;6.93;;;2.53;;
12900;SDS011;6518;50.930;5.344;2022-08-04T15:44:37;7.00;;;2.42;;
12900;SDS011;6518;50.930;5.344;2022-08-04T15:47:25;10.90;;;2.95;;
12900;SDS011;6518;50.930;5.344;2022-08-04T15:50:03;4.75;;;2.90;;
12900;SDS011;6518;50.930;5.344;2022-08-04T15:55:31;4.95;;;3.05;;
12900;SDS011;6518;50.930;5.344;2022-08-04T15:58:00;6.75;;;3.28;;
12900;SDS011;6518;50.930;5.344;2022-08-04T16:00:32;7.28;;;3.38;;
12900;SDS011;6518;50.930;5.344;2022-08-04T16:03:41;5.32;;;2.70;;
12900;SDS011;6518;50.930;5.344;2022-08-04T16:06:39;7.13;;;3.15;;
12900;SDS011;6518;50.930;5.344;2022-08-04T16:09:19;6.82;;;2.80;;
12900;SDS011;6518;50.930;5.344;2022-08-04T16:11:48;5.57;;;2.83;;
12900;SDS011;6518;50.930;5.344;2022-08-04T16:14:16;8.55;;;2.90;;
12900;SDS011;6518;50.930;5.344;2022-08-04T16:16:46;6.55;;;3.00;;
12900;SDS011;6518;50.930;5.344;2022-08-04T16:19:19;7.78;;;2.83;;
12900;SDS011;6518;50.930;5.344;2022-08-04T16:21:54;4.88;;;2.72;;
12900;SDS011;6518;50.930;5.344;2022-08-04T16:24:26;9.98;;;3.13;;
12900;SDS011;6518;50.930;5.344;2022-08-04T16:26:54;5.82;;;2.95;;
12900;SDS011;6518;50.930;5.344;2022-08-04T16:29:29;8.18;;;3.22;;
12900;SDS011;6518;50.930;5.344;2022-08-04T16:32:11;6.03;;;3.05;;
12900;SDS011;6518;50.930;5.344;2022-08-04T16:34:48;6.20;;;3.30;;
12900;SDS011;6518;50.930;5.344;2022-08-04T16:37:21;7.60;;;3.20;;
12900;SDS011;6518;50.930;5.344;2022-08-04T16:39:49;7.50;;;3.72;;